createdAt,value
2022-12-01T00:02:24.107Z,57.28
2022-12-01T00:04:51.192Z,53.08
2022-12-01T00:07:18.136Z,56.92
2022-12-01T00:10:03.670Z,54.70
2022-12-01T00:12:31.489Z,54.17
2022-12-01T00:15:01.269Z,56.22
2022-12-01T00:17:30.012Z,56.45
2022-12-01T00:19:57.603Z,56.55
2022-12-01T00:22:24.515Z,58.33
2022-12-01T00:24:51.848Z,61.17
2022-12-01T00:27:19.088Z,64.50
2022-12-01T00:29:47.308Z,61.80
2022-12-01T00:32:14.559Z,64.72
2022-12-01T00:34:41.535Z,61.83
2022-12-01T00:37:08.585Z,63.83
2022-12-01T00:39:35.532Z,66.30
2022-12-01T00:42:02.408Z,63.78
2022-12-01T00:44:29.298Z,69.18
2022-12-01T00:46:56.561Z,72.05
2022-12-01T00:49:23.498Z,66.20
2022-12-01T00:51:50.400Z,72.10
2022-12-01T00:54:17.403Z,78.15
2022-12-01T00:56:44.528Z,78.57
2022-12-01T00:59:11.988Z,74.57
2022-12-01T01:01:39.138Z,82.43
2022-12-01T01:04:06.713Z,77.88
2022-12-01T01:06:33.702Z,79.75
2022-12-01T01:09:00.559Z,81.68
2022-12-01T01:11:27.398Z,78.65
2022-12-01T01:13:54.214Z,81.38
2022-12-01T01:16:22.178Z,80.75
2022-12-01T01:18:49.160Z,81.50
2022-12-01T01:21:17.838Z,81.53
2022-12-01T01:23:44.726Z,80.32
2022-12-01T01:26:22.520Z,76.88
2022-12-01T01:28:49.855Z,72.85
2022-12-01T01:31:18.331Z,73.30
2022-12-01T01:33:45.241Z,78.03
2022-12-01T01:36:12.822Z,71.75
2022-12-01T01:38:39.726Z,67.10
2022-12-01T01:41:07.010Z,63.40
2022-12-01T01:43:50.461Z,61.33
2022-12-01T01:46:18.793Z,66.80
2022-12-01T01:48:56.745Z,65.15
2022-12-01T01:51:36.745Z,63.28
2022-12-01T01:54:07.778Z,61.55
2022-12-01T01:56:35.830Z,64.30
2022-12-01T01:59:03.012Z,69.18
2022-12-01T02:01:30.218Z,70.25
2022-12-01T02:03:57.647Z,74.03
2022-12-01T02:06:24.818Z,72.80
2022-12-01T02:08:51.971Z,69.93
2022-12-01T02:11:27.997Z,69.00
2022-12-01T02:14:18.115Z,67.95
2022-12-01T02:16:50.872Z,71.00
2022-12-01T02:19:44.738Z,67.97
2022-12-01T02:22:14.560Z,65.53
2022-12-01T02:24:50.719Z,61.95
2022-12-01T02:27:32.455Z,63.33
2022-12-01T02:30:07.357Z,60.33
2022-12-01T02:32:34.132Z,65.00
2022-12-01T02:35:24.617Z,63.35
2022-12-01T02:40:21.205Z,65.18
2022-12-01T02:43:06.916Z,63.20
2022-12-01T02:46:00.037Z,66.53
2022-12-01T02:48:35.123Z,70.30
2022-12-01T02:51:06.632Z,68.45
2022-12-01T02:53:34.257Z,79.88
2022-12-01T02:56:01.550Z,74.72
2022-12-01T02:58:28.514Z,80.40
2022-12-01T03:00:55.530Z,80.72
2022-12-01T03:03:46.714Z,82.15
2022-12-01T03:06:24.547Z,82.88
2022-12-01T03:09:06.733Z,82.53
2022-12-01T03:11:36.495Z,85.55
2022-12-01T03:14:13.680Z,82.72
2022-12-01T03:16:54.066Z,81.85
2022-12-01T03:19:35.697Z,78.97
2022-12-01T03:22:05.987Z,79.10
2022-12-01T03:27:03.851Z,80.82
2022-12-01T03:29:33.457Z,78.43
2022-12-01T03:32:18.639Z,78.05
2022-12-01T03:34:51.660Z,75.18
2022-12-01T03:37:38.640Z,76.93
2022-12-01T03:40:08.177Z,74.57
2022-12-01T03:42:41.878Z,70.50
2022-12-01T03:45:12.160Z,70.20
2022-12-01T03:47:40.639Z,66.38
2022-12-01T03:50:08.468Z,73.78
2022-12-01T03:52:41.326Z,76.60
2022-12-01T03:55:12.103Z,76.97
2022-12-01T03:57:40.023Z,75.65
2022-12-01T04:00:08.247Z,79.85
2022-12-01T04:02:39.745Z,74.25
2022-12-01T04:05:09.447Z,70.50
2022-12-01T04:07:39.812Z,67.55
2022-12-01T04:12:33.681Z,63.33
2022-12-01T04:15:02.538Z,62.92
2022-12-01T04:17:31.408Z,129.02
2022-12-01T04:19:58.284Z,64.93
2022-12-01T04:22:25.916Z,62.72
2022-12-01T04:24:52.982Z,64.43
2022-12-01T04:27:22.103Z,69.43
2022-12-01T04:29:50.121Z,66.95
2022-12-01T04:32:18.538Z,63.25
2022-12-01T04:34:45.666Z,65.55
2022-12-01T04:37:13.186Z,71.20
2022-12-01T04:39:42.298Z,67.03
2022-12-01T04:42:09.719Z,66.25
2022-12-01T04:44:36.956Z,59.78
2022-12-01T04:47:04.764Z,55.38
2022-12-01T04:49:57.073Z,57.83
2022-12-01T04:52:23.802Z,57.55
2022-12-01T04:54:50.522Z,58.22
2022-12-01T04:57:17.228Z,55.53
2022-12-01T04:59:43.986Z,55.03
2022-12-01T05:02:10.828Z,57.67
2022-12-01T05:04:41.431Z,54.15
2022-12-01T05:07:08.249Z,54.33
2022-12-01T05:09:34.942Z,53.08
2022-12-01T05:12:01.641Z,55.42
2022-12-01T05:14:28.400Z,52.75
2022-12-01T05:16:56.098Z,53.50
2022-12-01T05:19:41.353Z,53.15
2022-12-01T05:22:08.050Z,55.58
2022-12-01T05:24:34.773Z,58.83
2022-12-01T05:27:01.478Z,56.97
2022-12-01T05:29:28.181Z,59.80
2022-12-01T05:31:54.954Z,59.30
2022-12-01T05:34:21.768Z,56.60
2022-12-01T05:36:48.479Z,55.60
2022-12-01T05:39:15.228Z,54.28
2022-12-01T05:41:41.909Z,54.05
2022-12-01T05:44:08.665Z,56.17
2022-12-01T05:46:35.352Z,61.88
2022-12-01T05:49:02.093Z,57.85
2022-12-01T05:51:28.830Z,57.95
2022-12-01T05:53:55.649Z,63.03
2022-12-01T05:56:22.464Z,58.55
2022-12-01T05:58:49.203Z,59.67
2022-12-01T06:01:16.030Z,65.88
2022-12-01T06:03:42.949Z,57.20
2022-12-01T06:06:09.746Z,64.03
2022-12-01T06:08:36.565Z,59.78
2022-12-01T06:11:03.263Z,59.15
2022-12-01T06:13:29.945Z,61.58
2022-12-01T06:16:00.353Z,62.40
2022-12-01T06:18:27.630Z,63.63
2022-12-01T06:20:54.398Z,61.40
2022-12-01T06:23:21.147Z,60.15
2022-12-01T06:25:47.842Z,63.45
2022-12-01T06:28:14.952Z,61.90
2022-12-01T06:30:41.920Z,60.78
2022-12-01T06:33:08.705Z,63.13
2022-12-01T06:35:35.729Z,60.28
2022-12-01T06:38:02.547Z,63.63
2022-12-01T06:40:29.236Z,64.82
2022-12-01T06:42:59.068Z,62.92
2022-12-01T06:45:26.353Z,65.40
2022-12-01T06:47:53.856Z,62.78
2022-12-01T06:50:20.726Z,61.42
2022-12-01T06:52:47.963Z,58.08
2022-12-01T06:55:14.773Z,58.30
2022-12-01T06:57:41.904Z,58.83
2022-12-01T07:00:09.154Z,59.92
2022-12-01T07:02:36.219Z,60.17
2022-12-01T07:05:03.006Z,58.92
2022-12-01T07:07:29.828Z,57.00
2022-12-01T07:09:56.561Z,59.00
2022-12-01T07:12:23.248Z,56.33
2022-12-01T07:14:49.932Z,62.63
2022-12-01T07:17:16.654Z,59.25
2022-12-01T07:19:43.375Z,62.53
2022-12-01T07:22:10.079Z,65.22
2022-12-01T07:24:36.789Z,60.83
2022-12-01T07:27:03.497Z,62.20
2022-12-01T07:29:30.218Z,59.78
2022-12-01T07:31:56.941Z,65.63
2022-12-01T07:34:23.717Z,60.67
2022-12-01T07:36:50.436Z,62.72
2022-12-01T07:39:17.233Z,63.58
2022-12-01T07:41:43.938Z,67.22
2022-12-01T07:44:12.360Z,69.80
2022-12-01T07:46:39.154Z,68.63
2022-12-01T07:49:07.018Z,65.35
2022-12-01T07:51:34.029Z,68.68
2022-12-01T07:54:04.942Z,62.88
2022-12-01T07:56:31.701Z,62.50
2022-12-01T07:58:58.637Z,64.03
2022-12-01T08:01:25.956Z,62.17
2022-12-01T08:03:54.038Z,64.07
2022-12-01T08:06:21.254Z,60.58
2022-12-01T08:08:48.154Z,64.15
2022-12-01T08:11:16.189Z,60.88
2022-12-01T08:13:43.263Z,61.75
2022-12-01T08:16:11.432Z,62.80
2022-12-01T08:18:39.220Z,63.65
2022-12-01T08:21:06.835Z,61.33
2022-12-01T08:23:33.683Z,61.60
2022-12-01T08:26:01.503Z,64.07
2022-12-01T08:28:28.224Z,65.40
2022-12-01T08:30:54.994Z,66.80
2022-12-01T08:33:22.223Z,70.25
2022-12-01T08:35:49.697Z,67.50
2022-12-01T08:38:17.052Z,72.30
2022-12-01T08:40:43.843Z,65.88
2022-12-01T08:43:28.318Z,66.25
2022-12-01T08:45:58.895Z,64.03
2022-12-01T08:48:25.750Z,67.05
2022-12-01T08:50:52.507Z,67.40
2022-12-01T08:53:19.217Z,66.80
2022-12-01T08:55:45.934Z,64.85
2022-12-01T08:58:12.628Z,67.63
2022-12-01T09:00:39.343Z,64.25
2022-12-01T09:03:06.089Z,62.65
2022-12-01T09:05:32.866Z,69.32
2022-12-01T09:08:18.332Z,68.45
2022-12-01T09:10:50.901Z,67.55
2022-12-01T09:13:17.603Z,68.15
2022-12-01T09:15:44.357Z,72.47
2022-12-01T09:18:11.092Z,66.45
2022-12-01T09:20:38.435Z,79.68
2022-12-01T09:23:05.136Z,68.90
2022-12-01T09:25:33.639Z,65.28
2022-12-01T09:28:00.384Z,67.18
2022-12-01T09:30:27.144Z,64.95
2022-12-01T09:32:53.933Z,66.78
2022-12-01T09:35:23.429Z,66.22
2022-12-01T09:37:50.459Z,66.53
2022-12-01T09:40:17.267Z,67.80
2022-12-01T09:42:45.377Z,71.50
2022-12-01T09:45:18.942Z,66.07
2022-12-01T09:47:46.846Z,69.82
2022-12-01T09:50:14.995Z,65.50
2022-12-01T09:52:41.798Z,67.05
2022-12-01T09:55:16.072Z,68.15
2022-12-01T09:57:43.768Z,64.25
2022-12-01T10:00:10.737Z,65.88
2022-12-01T10:03:03.185Z,68.95
2022-12-01T10:05:34.139Z,70.60
2022-12-01T10:08:02.822Z,65.45
2022-12-01T10:10:40.966Z,67.45
2022-12-01T10:13:21.417Z,66.72
2022-12-01T10:15:48.290Z,66.32
2022-12-01T10:18:18.017Z,66.18
2022-12-01T10:20:49.175Z,67.90
2022-12-01T10:23:22.565Z,67.07
2022-12-01T10:29:50.264Z,34.95
2022-12-01T10:38:30.394Z,62.55
2022-12-01T10:41:01.067Z,70.88
2022-12-01T10:43:31.897Z,67.32
2022-12-01T10:46:00.556Z,70.97
2022-12-01T10:48:27.483Z,69.53
2022-12-01T10:50:55.559Z,70.25
2022-12-01T10:53:32.707Z,70.90
2022-12-01T10:56:58.984Z,68.18
2022-12-01T10:59:28.170Z,68.10
2022-12-01T11:01:55.622Z,78.50
2022-12-01T11:04:31.816Z,69.38
2022-12-01T11:06:58.942Z,71.93
2022-12-01T11:09:28.307Z,71.13
2022-12-01T11:23:25.141Z,26.85
2022-12-01T11:26:06.164Z,25.08
2022-12-01T11:31:45.656Z,12.23
2022-12-01T11:34:24.421Z,14.00
2022-12-01T11:36:55.076Z,12.15
2022-12-01T11:39:29.516Z,12.45
2022-12-01T11:41:59.626Z,11.65
2022-12-01T11:44:50.386Z,12.43
2022-12-01T11:50:26.603Z,23.83
2022-12-01T11:52:53.270Z,20.90
2022-12-01T11:55:23.650Z,18.83
2022-12-01T11:57:53.577Z,18.00
2022-12-01T12:00:23.358Z,17.35
2022-12-01T12:03:09.479Z,15.50
2022-12-01T12:06:40.244Z,15.05
2022-12-01T12:11:57.023Z,13.43
2022-12-01T12:14:35.767Z,12.82
2022-12-01T12:17:26.435Z,12.77
2022-12-01T12:20:19.208Z,11.55
2022-12-01T12:23:06.452Z,11.82
2022-12-01T12:25:49.110Z,10.82
2022-12-01T12:28:34.319Z,11.13
2022-12-01T12:31:14.705Z,11.48
2022-12-01T12:34:02.949Z,10.80
2022-12-01T12:36:50.865Z,9.77
2022-12-01T12:39:34.323Z,9.85
2022-12-01T12:42:09.919Z,10.60
2022-12-01T12:44:37.623Z,9.77
2022-12-01T12:47:22.694Z,9.57
2022-12-01T12:50:01.175Z,9.95
2022-12-01T12:52:35.820Z,11.45
2022-12-01T12:55:11.568Z,10.63
2022-12-01T13:00:19.274Z,19.33
2022-12-01T13:04:03.177Z,17.50
2022-12-01T13:07:53.113Z,17.50
2022-12-01T13:10:47.542Z,17.88
2022-12-01T13:13:32.985Z,18.23
2022-12-01T13:16:04.073Z,17.33
2022-12-01T13:18:59.568Z,18.92
2022-12-01T13:21:38.042Z,17.95
2022-12-01T13:24:06.290Z,17.98
2022-12-01T13:26:36.487Z,17.15
2022-12-01T13:29:07.686Z,17.73
2022-12-01T13:31:48.755Z,17.80
2022-12-01T13:34:34.766Z,17.48
2022-12-01T13:37:01.905Z,17.52
2022-12-01T13:39:37.880Z,17.25
2022-12-01T13:42:04.634Z,17.63
2022-12-01T13:44:38.208Z,17.05
2022-12-01T13:47:24.992Z,17.27
2022-12-01T13:49:53.375Z,17.42
2022-12-01T13:52:23.472Z,16.33
2022-12-01T13:55:08.302Z,15.60
2022-12-01T13:57:40.612Z,15.27
2022-12-01T14:00:30.817Z,14.98
2022-12-01T14:03:12.866Z,15.35
2022-12-01T14:05:39.667Z,15.50
2022-12-01T14:08:23.757Z,15.25
2022-12-01T14:11:00.623Z,15.98
2022-12-01T14:13:30.184Z,15.82
2022-12-01T14:15:59.740Z,14.57
2022-12-01T14:18:36.183Z,14.13
2022-12-01T14:21:06.651Z,15.40
2022-12-01T14:26:18.232Z,15.30
2022-12-01T14:29:00.232Z,15.38
2022-12-01T14:31:32.985Z,15.20
2022-12-01T14:34:21.952Z,15.88
2022-12-01T14:37:03.634Z,15.32
2022-12-01T14:39:40.481Z,14.90
2022-12-01T14:42:15.847Z,15.90
2022-12-01T14:44:49.091Z,15.13
2022-12-01T14:47:16.008Z,16.67
2022-12-01T14:50:06.320Z,17.13
2022-12-01T14:52:45.276Z,15.43
2022-12-01T14:55:25.277Z,16.05
2022-12-01T14:58:00.886Z,16.30
2022-12-01T15:00:27.607Z,15.85
2022-12-01T15:02:59.378Z,17.17
2022-12-01T15:05:28.906Z,16.40
2022-12-01T15:08:18.745Z,15.83
2022-12-01T15:10:58.017Z,15.35
2022-12-01T15:13:27.848Z,15.50
2022-12-01T15:16:01.561Z,15.48
2022-12-01T15:18:29.696Z,15.73
2022-12-01T15:21:01.379Z,16.40
2022-12-01T15:23:28.348Z,15.93
2022-12-01T15:25:55.755Z,16.25
2022-12-01T15:28:33.384Z,16.42
2022-12-01T15:31:01.872Z,16.20
2022-12-01T15:33:37.274Z,17.05
2022-12-01T15:36:28.826Z,16.10
2022-12-01T15:38:56.243Z,15.88
2022-12-01T15:41:31.325Z,16.70
2022-12-01T15:43:59.923Z,15.90
2022-12-01T15:46:33.913Z,17.08
2022-12-01T15:49:29.815Z,14.68
2022-12-01T15:52:07.519Z,13.25
2022-12-01T15:54:34.592Z,13.75
2022-12-01T15:57:02.221Z,14.88
2022-12-01T15:59:39.957Z,15.00
2022-12-01T16:02:20.477Z,16.08
2022-12-01T16:04:49.435Z,14.85
2022-12-01T16:07:16.534Z,15.40
2022-12-01T16:09:57.627Z,15.55
2022-12-01T16:12:26.890Z,15.05
2022-12-01T16:15:12.310Z,14.38
2022-12-01T16:17:52.676Z,16.40
2022-12-01T16:23:26.335Z,19.60
2022-12-01T16:25:55.602Z,19.33
2022-12-01T16:28:33.230Z,20.02
2022-12-01T16:31:00.149Z,19.83
2022-12-01T16:33:28.708Z,20.73
2022-12-01T16:35:55.879Z,19.60
2022-12-01T16:38:25.102Z,20.38
2022-12-01T16:41:02.414Z,19.25
2022-12-01T16:43:29.663Z,19.23
2022-12-01T16:46:04.209Z,21.10
2022-12-01T16:48:31.775Z,19.70
2022-12-01T16:51:02.557Z,20.48
2022-12-01T16:53:29.310Z,18.85
2022-12-01T16:55:58.362Z,19.20
2022-12-01T16:58:25.705Z,19.40
2022-12-01T17:00:53.047Z,20.67
2022-12-01T17:03:25.075Z,20.13
2022-12-01T17:06:01.864Z,19.98
2022-12-01T17:08:30.318Z,20.15
2022-12-01T17:10:57.438Z,20.30
2022-12-01T17:13:24.261Z,19.85
2022-12-01T17:15:53.548Z,19.63
2022-12-01T17:18:22.125Z,18.90
2022-12-01T17:21:04.054Z,18.85
2022-12-01T17:23:30.840Z,18.33
2022-12-01T17:25:57.570Z,19.65
2022-12-01T17:28:24.377Z,19.33
2022-12-01T17:30:51.199Z,19.33
2022-12-01T17:33:18.216Z,19.55
2022-12-01T17:35:44.940Z,18.33
2022-12-01T17:38:11.621Z,18.55
2022-12-01T17:40:38.285Z,18.33
2022-12-01T17:43:08.011Z,17.67
2022-12-01T17:45:36.420Z,18.85
2022-12-01T17:48:03.395Z,18.30
2022-12-01T17:50:30.031Z,18.77
2022-12-01T17:52:56.830Z,19.38
2022-12-01T17:55:25.452Z,27.30
2022-12-01T17:57:52.567Z,23.38
2022-12-01T18:00:20.005Z,18.25
2022-12-01T18:02:46.943Z,16.10
2022-12-01T18:05:13.730Z,16.90
2022-12-01T18:07:40.757Z,15.13
2022-12-01T18:10:07.852Z,15.40
2022-12-01T18:12:35.629Z,14.60
2022-12-01T18:15:03.405Z,15.70
2022-12-01T18:17:30.186Z,14.60
2022-12-01T18:19:57.356Z,13.75
2022-12-01T18:22:23.985Z,15.50
2022-12-01T18:24:50.821Z,13.63
2022-12-01T18:27:17.790Z,14.57
2022-12-01T18:29:44.543Z,14.48
2022-12-01T18:32:11.282Z,14.43
2022-12-01T18:34:38.042Z,14.65
2022-12-01T18:37:04.831Z,14.07
2022-12-01T18:39:32.592Z,14.48
2022-12-01T18:41:59.671Z,14.77
2022-12-01T18:44:26.971Z,14.10
2022-12-01T18:46:53.806Z,14.70
2022-12-01T18:49:20.588Z,14.57
2022-12-01T18:51:47.382Z,13.25
2022-12-01T18:54:15.866Z,14.35
2022-12-01T18:56:43.074Z,13.48
2022-12-01T18:59:11.242Z,14.68
2022-12-01T19:01:41.547Z,14.23
2022-12-01T19:04:10.441Z,15.43
2022-12-01T19:06:39.247Z,13.68
2022-12-01T19:09:07.953Z,13.73
2022-12-01T19:11:35.863Z,14.02
2022-12-01T19:14:02.666Z,14.23
2022-12-01T19:16:30.116Z,13.55
2022-12-01T19:18:57.326Z,13.10
2022-12-01T19:21:24.082Z,12.80
2022-12-01T19:23:50.850Z,13.07
2022-12-01T19:26:21.064Z,13.27
2022-12-01T19:28:49.741Z,14.63
2022-12-01T19:31:22.296Z,13.10
2022-12-01T19:33:49.706Z,13.85
2022-12-01T19:36:19.374Z,13.00
2022-12-01T19:38:46.511Z,14.10
2022-12-01T19:41:14.065Z,14.23
2022-12-01T19:43:41.742Z,14.10
2022-12-01T19:46:13.691Z,14.00
2022-12-01T19:48:40.956Z,13.32
2022-12-01T19:51:15.286Z,13.63
2022-12-01T19:53:42.103Z,13.88
2022-12-01T19:56:09.619Z,13.65
2022-12-01T19:58:36.346Z,13.70
2022-12-01T20:01:08.800Z,13.80
2022-12-01T20:03:35.847Z,14.70
2022-12-01T20:06:05.428Z,13.38
2022-12-01T20:08:35.733Z,12.95
2022-12-01T20:11:03.801Z,13.50
2022-12-01T20:13:32.215Z,13.65
2022-12-01T20:16:13.970Z,13.55
2022-12-01T20:18:44.703Z,13.10
2022-12-01T20:21:17.680Z,13.00
2022-12-01T20:23:46.747Z,14.45
2022-12-01T20:26:14.792Z,12.95
2022-12-01T20:28:42.056Z,13.43
2022-12-01T20:31:31.338Z,13.43
2022-12-01T20:34:00.382Z,13.10
2022-12-01T20:36:27.611Z,13.07
2022-12-01T20:38:54.864Z,13.10
2022-12-01T20:41:21.978Z,13.10
2022-12-01T20:43:48.940Z,13.27
2022-12-01T20:46:16.838Z,13.65
2022-12-01T20:48:43.825Z,12.85
2022-12-01T20:51:13.307Z,13.65
2022-12-01T20:53:40.786Z,13.30
2022-12-01T20:56:10.852Z,13.48
2022-12-01T20:58:38.957Z,12.82
2022-12-01T21:01:17.208Z,12.75
2022-12-01T21:03:45.590Z,13.30
2022-12-01T21:06:15.048Z,12.70
2022-12-01T21:08:43.665Z,14.00
2022-12-01T21:11:36.620Z,13.00
2022-12-01T21:14:04.790Z,12.60
2022-12-01T21:16:33.078Z,12.27
2022-12-01T21:19:11.022Z,12.88
2022-12-01T21:21:41.953Z,13.38
2022-12-01T21:24:08.680Z,13.30
2022-12-01T21:26:40.405Z,12.13
2022-12-01T21:29:21.139Z,12.35
2022-12-01T21:31:50.764Z,13.35
2022-12-01T21:34:21.360Z,12.33
2022-12-01T21:36:50.095Z,12.35
2022-12-01T21:39:19.573Z,12.93
2022-12-01T21:41:47.947Z,12.68
2022-12-01T21:44:20.002Z,11.98
2022-12-01T21:46:50.183Z,12.30
2022-12-01T21:49:22.051Z,12.35
2022-12-01T21:51:52.784Z,12.52
2022-12-01T21:54:21.119Z,12.82
2022-12-01T21:56:48.963Z,12.75
2022-12-01T21:59:23.503Z,11.82
2022-12-01T22:01:57.646Z,11.82
2022-12-01T22:04:33.452Z,11.27
2022-12-01T22:07:00.180Z,11.63
2022-12-01T22:09:31.299Z,10.82
2022-12-01T22:12:11.646Z,11.52
2022-12-01T22:14:38.970Z,11.60
2022-12-01T22:17:05.662Z,11.18
2022-12-01T22:19:34.569Z,11.27
2022-12-01T22:22:23.249Z,11.50
2022-12-01T22:24:56.606Z,12.25
2022-12-01T22:27:41.798Z,11.55
2022-12-01T22:30:08.483Z,11.05
2022-12-01T22:32:58.545Z,12.02
2022-12-01T22:35:39.230Z,11.55
2022-12-01T22:38:05.992Z,11.45
2022-12-01T22:40:47.974Z,11.70
2022-12-01T22:43:17.748Z,11.68
2022-12-01T22:46:01.676Z,12.27
2022-12-01T22:48:36.246Z,11.50
2022-12-01T22:51:15.086Z,12.40
2022-12-01T22:53:43.958Z,12.30
2022-12-01T22:56:31.954Z,12.10
2022-12-01T22:58:58.722Z,11.15
2022-12-01T23:01:31.081Z,11.98
2022-12-01T23:04:22.023Z,11.48
2022-12-01T23:06:51.598Z,12.25
2022-12-01T23:09:19.095Z,10.65
2022-12-01T23:11:55.233Z,11.45
2022-12-01T23:14:23.618Z,11.85
2022-12-01T23:16:56.659Z,11.77
2022-12-01T23:19:23.439Z,10.55
2022-12-01T23:21:52.535Z,10.30
2022-12-01T23:24:19.374Z,10.77
2022-12-01T23:26:47.191Z,10.60
2022-12-01T23:29:13.928Z,10.88
2022-12-01T23:31:41.224Z,10.50
2022-12-01T23:34:15.158Z,11.07
2022-12-01T23:36:43.117Z,10.85
2022-12-01T23:39:12.746Z,11.50
2022-12-01T23:41:43.136Z,10.27
2022-12-01T23:44:38.822Z,10.57
2022-12-01T23:47:16.962Z,10.77
2022-12-01T23:49:43.945Z,11.60
2022-12-01T23:52:17.974Z,10.75
2022-12-01T23:54:44.917Z,10.38
2022-12-01T23:57:23.781Z,10.73
2022-12-01T23:59:54.486Z,10.43
